Time;durP1;ratioP1;P1;durP2;ratioP2;P2;SDS_P1;SDS_P2;PMS_P1;PMS_P2;Temp;Humidity;BMP_temperature;BMP_pressure;BME280_temperature;BME280_humidity;BME280_pressure;Samples;Min_cycle;Max_cycle;Signal;HPM_P1;HPM_P2
2021/01/11 00:00:21;;;;;;;11.93;5.70;;;2.00;99.90;;;;;;5044229;28;20378;-74
2021/01/11 00:02:48;;;;;;;8.47;5.27;;;2.00;99.90;;;;;;5052675;28;20202;-75
2021/01/11 00:05:16;;;;;;;10.47;6.00;;;2.00;99.90;;;;;;5049399;28;20283;-74
2021/01/11 00:07:42;;;;;;;9.03;5.33;;;2.00;99.90;;;;;;5051047;28;20198;-74
2021/01/11 00:10:10;;;;;;;8.80;5.73;;;2.00;99.90;;;;;;5051446;28;20297;-73
2021/01/11 00:12:38;;;;;;;8.40;5.63;;;2.00;99.90;;;;;;5051436;28;20258;-74
2021/01/11 00:15:07;;;;;;;9.13;5.43;;;2.00;99.90;;;;;;5042714;28;20296;-73
2021/01/11 00:17:33;;;;;;;9.67;4.70;;;2.00;99.90;;;;;;5048580;28;20214;-74
2021/01/11 00:20:02;;;;;;;9.87;5.53;;;2.00;99.90;;;;;;5043448;28;20567;-74
2021/01/11 00:22:30;;;;;;;9.47;5.23;;;2.00;99.90;;;;;;5044356;28;20266;-74
2021/01/11 00:24:56;;;;;;;7.30;4.60;;;2.00;99.90;;;;;;5045818;28;20244;-73
2021/01/11 00:27:22;;;;;;;6.70;4.60;;;2.00;99.90;;;;;;5047908;28;20289;-74
2021/01/11 00:29:49;;;;;;;9.63;4.93;;;2.00;99.90;;;;;;5050040;28;20201;-76
2021/01/11 00:32:16;;;;;;;8.73;5.10;;;2.00;99.90;;;;;;5041956;28;20240;-75
2021/01/11 00:34:42;;;;;;;6.97;4.70;;;2.00;99.90;;;;;;5044165;28;20203;-75
2021/01/11 00:37:10;;;;;;;7.60;4.70;;;2.00;99.90;;;;;;5047926;28;20202;-77
2021/01/11 00:39:37;;;;;;;7.73;4.60;;;2.00;99.90;;;;;;5049966;28;20210;-77
2021/01/11 00:42:04;;;;;;;7.43;5.00;;;2.00;99.90;;;;;;5045562;28;20210;-78
2021/01/11 00:44:30;;;;;;;6.23;4.40;;;2.00;99.90;;;;;;5043515;28;20254;-78
2021/01/11 00:46:59;;;;;;;7.97;4.70;;;2.00;99.90;;;;;;5045150;28;20236;-77
2021/01/11 00:49:26;;;;;;;6.80;4.90;;;2.00;99.90;;;;;;5047590;28;20210;-77
2021/01/11 00:51:52;;;;;;;7.80;5.03;;;1.90;99.90;;;;;;5047982;28;20206;-77
2021/01/11 00:54:18;;;;;;;6.93;4.80;;;2.00;99.90;;;;;;5049284;28;20207;-76
2021/01/11 00:56:46;;;;;;;6.73;4.50;;;2.00;99.90;;;;;;5047611;28;20297;-77
2021/01/11 00:59:13;;;;;;;8.33;5.50;;;2.00;99.90;;;;;;5051928;28;20607;-77
2021/01/11 01:01:47;;;;;;;9.47;5.27;;;2.00;99.90;;;;;;5048270;28;20203;-76
2021/01/11 01:04:13;;;;;;;9.00;5.27;;;2.00;99.90;;;;;;5045266;28;20270;-76
2021/01/11 01:06:39;;;;;;;9.47;4.93;;;2.00;99.90;;;;;;5041677;28;20214;-76
2021/01/11 01:09:06;;;;;;;8.33;5.50;;;2.00;99.90;;;;;;5038555;28;20625;-76
2021/01/11 01:11:32;;;;;;;8.97;4.93;;;2.00;99.90;;;;;;5045708;28;20248;-76
2021/01/11 01:14:00;;;;;;;8.30;5.03;;;2.00;99.90;;;;;;5044348;28;20202;-77
2021/01/11 01:16:27;;;;;;;7.50;4.93;;;2.00;99.90;;;;;;5042342;28;20217;-77
2021/01/11 01:18:53;;;;;;;7.10;5.00;;;2.00;99.90;;;;;;5040778;28;20209;-76
2021/01/11 01:21:20;;;;;;;8.43;5.50;;;2.00;99.90;;;;;;5050496;28;20214;-76
2021/01/11 01:23:46;;;;;;;8.10;5.63;;;2.00;99.90;;;;;;5046109;28;20297;-77
2021/01/11 01:26:13;;;;;;;10.10;5.73;;;2.00;99.90;;;;;;5047693;28;20215;-75
2021/01/11 01:28:39;;;;;;;10.13;5.53;;;2.00;99.90;;;;;;5047221;28;20217;-75
2021/01/11 01:31:07;;;;;;;9.70;5.40;;;2.00;99.90;;;;;;5038778;28;20653;-77
2021/01/11 01:33:33;;;;;;;8.83;5.90;;;2.00;99.90;;;;;;5050885;28;20210;-76
2021/01/11 01:36:00;;;;;;;9.67;5.53;;;2.00;99.90;;;;;;5045433;28;20209;-76
2021/01/11 01:38:28;;;;;;;10.27;6.20;;;2.00;99.90;;;;;;5050078;28;20216;-75
2021/01/11 01:40:55;;;;;;;9.30;5.73;;;2.00;99.90;;;;;;5044366;28;20210;-75
2021/01/11 01:43:21;;;;;;;9.20;6.23;;;2.00;99.90;;;;;;5047106;28;20220;-76
2021/01/11 01:45:48;;;;;;;9.83;6.27;;;2.00;99.90;;;;;;5046544;28;20576;-75
2021/01/11 01:48:15;;;;;;;11.37;5.97;;;2.00;99.90;;;;;;5048566;28;20205;-75
2021/01/11 01:50:42;;;;;;;8.23;5.83;;;2.00;99.90;;;;;;5048541;28;20241;-75
2021/01/11 01:53:09;;;;;;;10.87;6.23;;;1.90;99.90;;;;;;5046040;28;20293;-75
2021/01/11 01:55:37;;;;;;;10.33;6.13;;;1.90;99.90;;;;;;5052312;28;20289;-76
2021/01/11 01:58:04;;;;;;;9.63;6.03;;;1.90;99.90;;;;;;5046390;28;20251;-75
2021/01/11 02:00:31;;;;;;;10.03;5.73;;;1.90;99.90;;;;;;5046328;28;20202;-76
2021/01/11 02:02:57;;;;;;;11.40;6.40;;;1.90;99.90;;;;;;5042033;28;20284;-77
2021/01/11 02:05:24;;;;;;;12.13;6.80;;;1.90;99.90;;;;;;5041891;28;20260;-75
2021/01/11 02:07:59;;;;;;;9.37;6.57;;;1.80;99.90;;;;;;5047685;28;20248;-75
2021/01/11 02:10:29;;;;;;;9.73;6.53;;;1.80;99.90;;;;;;5041908;28;20264;-74
2021/01/11 02:13:17;;;;;;;10.33;6.47;;;1.90;99.90;;;;;;5039144;28;20232;-75
2021/01/11 02:15:50;;;;;;;9.00;6.10;;;1.80;99.90;;;;;;5046875;28;20289;-76
2021/01/11 02:18:28;;;;;;;9.87;6.40;;;1.80;99.90;;;;;;5039712;28;20202;-76
2021/01/11 02:21:14;;;;;;;11.33;7.50;;;1.80;99.90;;;;;;5044667;28;20198;-75
2021/01/11 02:24:12;;;;;;;12.00;6.93;;;1.80;99.90;;;;;;5040711;28;20617;-76
2021/01/11 02:27:00;;;;;;;12.67;7.27;;;1.80;99.90;;;;;;5037255;28;20285;-75
2021/01/11 02:29:42;;;;;;;13.47;8.00;;;1.70;99.90;;;;;;5039514;28;20225;-77
2021/01/11 02:32:10;;;;;;;14.87;9.07;;;1.60;99.90;;;;;;5040555;28;20625;-77
2021/01/11 02:34:38;;;;;;;16.20;8.43;;;1.70;99.90;;;;;;5047839;28;20234;-76
2021/01/11 02:37:06;;;;;;;15.10;9.60;;;1.60;99.90;;;;;;5041424;28;20289;-76
2021/01/11 02:39:33;;;;;;;14.17;8.47;;;1.60;99.90;;;;;;5045329;28;20217;-77
2021/01/11 02:41:59;;;;;;;14.90;8.97;;;1.70;99.90;;;;;;5040515;28;20207;-76
2021/01/11 02:44:25;;;;;;;16.43;9.97;;;1.60;99.90;;;;;;5042154;28;20772;-76
2021/01/11 02:46:52;;;;;;;14.97;9.47;;;1.60;99.90;;;;;;5047895;28;20293;-76
2021/01/11 02:49:26;;;;;;;16.33;9.40;;;1.60;99.90;;;;;;5041766;28;20221;-77
2021/01/11 02:52:02;;;;;;;18.27;10.23;;;1.70;99.90;;;;;;5046522;28;20663;-77
2021/01/11 02:54:34;;;;;;;16.97;10.17;;;1.70;99.90;;;;;;5041021;28;20237;-77
2021/01/11 02:57:09;;;;;;;16.67;9.50;;;1.60;99.90;;;;;;5054654;28;20664;-77
2021/01/11 02:59:40;;;;;;;16.53;10.07;;;1.70;99.90;;;;;;5044906;28;20221;-77
2021/01/11 03:02:08;;;;;;;15.67;9.80;;;1.70;99.90;;;;;;5048141;28;20206;-77
2021/01/11 03:04:37;;;;;;;18.33;10.50;;;1.70;99.90;;;;;;5034213;28;20663;-76
2021/01/11 03:07:05;;;;;;;20.30;11.33;;;1.60;99.90;;;;;;5047068;28;20296;-76
2021/01/11 03:09:34;;;;;;;18.97;11.10;;;1.70;99.90;;;;;;5046328;28;20384;-76
2021/01/11 03:12:01;;;;;;;17.90;10.30;;;1.70;99.90;;;;;;5049207;28;20691;-77
2021/01/11 03:14:28;;;;;;;16.50;9.80;;;1.70;99.90;;;;;;5037389;28;20276;-77
2021/01/11 03:16:55;;;;;;;21.97;11.00;;;1.70;99.90;;;;;;5046407;28;20210;-76
2021/01/11 03:19:21;;;;;;;18.73;10.73;;;1.70;99.90;;;;;;5048352;28;20206;-76
2021/01/11 03:21:49;;;;;;;16.80;9.97;;;1.70;99.90;;;;;;5046306;28;20264;-77
2021/01/11 03:24:16;;;;;;;17.13;10.27;;;1.80;99.90;;;;;;5049505;28;20226;-76
2021/01/11 03:26:44;;;;;;;16.27;10.83;;;1.70;99.90;;;;;;5048427;28;20206;-77
2021/01/11 03:29:11;;;;;;;19.90;11.10;;;1.80;99.90;;;;;;5053628;28;20233;-75
2021/01/11 03:31:38;;;;;;;18.63;11.23;;;1.70;99.90;;;;;;5049599;28;20211;-75
2021/01/11 03:34:05;;;;;;;20.00;11.07;;;1.80;99.90;;;;;;5042388;28;20209;-75
2021/01/11 03:36:32;;;;;;;17.83;10.63;;;1.70;99.90;;;;;;5046770;28;20259;-76
2021/01/11 03:38:59;;;;;;;19.27;11.60;;;1.70;99.90;;;;;;5045354;28;20710;-75
2021/01/11 03:41:26;;;;;;;17.53;10.70;;;1.70;99.90;;;;;;5048047;28;20557;-75
2021/01/11 03:43:53;;;;;;;18.53;11.33;;;1.70;99.90;;;;;;5051810;28;20222;-76
2021/01/11 03:46:19;;;;;;;21.07;11.13;;;1.80;99.90;;;;;;5051558;28;20293;-76
2021/01/11 03:48:47;;;;;;;19.17;11.33;;;1.70;99.90;;;;;;5046724;28;20318;-75
2021/01/11 03:51:13;;;;;;;19.83;11.33;;;1.70;99.90;;;;;;5051123;28;20570;-75
2021/01/11 03:53:44;;;;;;;21.40;11.37;;;1.70;99.90;;;;;;5046761;28;20205;-76
2021/01/11 03:56:11;;;;;;;20.50;11.30;;;1.70;99.90;;;;;;5048548;28;20202;-76
2021/01/11 03:58:37;;;;;;;19.57;11.23;;;1.70;99.90;;;;;;5051163;28;20270;-76
2021/01/11 04:01:04;;;;;;;21.50;12.13;;;1.70;99.90;;;;;;5044197;28;20209;-76
2021/01/11 04:03:31;;;;;;;21.10;12.07;;;1.70;99.90;;;;;;5044317;28;20288;-76
2021/01/11 04:05:58;;;;;;;16.63;10.47;;;1.70;99.90;;;;;;5042426;28;20559;-76
2021/01/11 04:08:25;;;;;;;19.13;11.53;;;1.70;99.90;;;;;;5048021;28;20226;-77
2021/01/11 04:10:55;;;;;;;17.90;11.47;;;1.70;99.90;;;;;;5052160;28;20204;-76
2021/01/11 04:13:23;;;;;;;19.07;11.57;;;1.60;99.90;;;;;;5047931;28;20293;-76
2021/01/11 04:15:49;;;;;;;18.70;11.60;;;1.60;99.90;;;;;;5046906;28;20238;-77
2021/01/11 04:18:16;;;;;;;18.03;11.13;;;1.50;99.90;;;;;;5048413;28;20301;-76
2021/01/11 04:20:42;;;;;;;18.97;10.93;;;1.60;99.90;;;;;;5045884;28;20274;-76
2021/01/11 04:23:09;;;;;;;18.87;11.63;;;1.60;99.90;;;;;;5043415;28;20618;-75
2021/01/11 04:25:35;;;;;;;19.77;11.97;;;1.60;99.90;;;;;;5046093;28;20256;-76
2021/01/11 04:28:04;;;;;;;19.80;12.30;;;1.60;99.90;;;;;;5048321;28;20226;-75
2021/01/11 04:30:32;;;;;;;21.67;12.40;;;1.60;99.90;;;;;;5053962;28;20302;-74
2021/01/11 04:32:58;;;;;;;18.07;12.00;;;1.60;99.90;;;;;;5047872;28;20227;-76
2021/01/11 04:35:27;;;;;;;20.80;11.73;;;1.60;99.90;;;;;;5039903;28;20241;-76
2021/01/11 04:37:54;;;;;;;18.30;11.03;;;1.60;99.90;;;;;;5041991;28;20658;-76
2021/01/11 04:40:21;;;;;;;19.80;12.30;;;1.70;99.90;;;;;;5045659;28;20226;-75
2021/01/11 04:42:54;;;;;;;19.87;11.80;;;1.70;99.90;;;;;;5047316;28;20288;-76
2021/01/11 04:45:23;;;;;;;22.17;11.77;;;1.70;99.90;;;;;;5052197;28;20221;-76
2021/01/11 04:47:54;;;;;;;18.50;11.23;;;1.70;99.90;;;;;;5041476;28;20210;-76
2021/01/11 04:50:20;;;;;;;19.57;12.07;;;1.60;99.90;;;;;;5049197;28;20210;-75
2021/01/11 04:52:47;;;;;;;22.53;12.07;;;1.60;99.90;;;;;;5050713;28;20227;-75
2021/01/11 04:55:14;;;;;;;19.03;12.07;;;1.60;99.90;;;;;;5045672;28;20685;-76
2021/01/11 04:57:50;;;;;;;19.33;11.77;;;1.60;99.90;;;;;;5044141;28;20246;-76
2021/01/11 05:00:20;;;;;;;19.27;12.03;;;1.60;99.90;;;;;;5049124;28;20233;-75
2021/01/11 05:02:46;;;;;;;18.50;12.30;;;1.60;99.90;;;;;;5048974;28;20297;-76
2021/01/11 05:05:14;;;;;;;21.27;12.03;;;1.60;99.90;;;;;;5041884;28;20233;-75
2021/01/11 05:07:40;;;;;;;20.47;12.57;;;1.60;99.90;;;;;;5037754;28;20336;-76
2021/01/11 05:10:08;;;;;;;21.47;11.90;;;1.60;99.90;;;;;;5046970;28;20647;-75
2021/01/11 05:12:35;;;;;;;17.47;10.77;;;1.70;99.90;;;;;;5044803;28;20245;-77
2021/01/11 05:15:18;;;;;;;18.30;11.87;;;1.60;99.90;;;;;;5045240;28;20241;-76
2021/01/11 05:17:45;;;;;;;19.80;12.37;;;1.60;99.90;;;;;;5054015;28;20205;-76
2021/01/11 05:20:14;;;;;;;16.00;10.90;;;1.70;99.90;;;;;;5047247;28;20543;-75
2021/01/11 05:22:47;;;;;;;20.93;11.90;;;1.60;99.90;;;;;;5048748;28;20234;-75
2021/01/11 05:25:14;;;;;;;21.97;12.47;;;1.60;99.90;;;;;;5042614;28;20214;-75
2021/01/11 05:27:42;;;;;;;17.60;12.03;;;1.60;99.90;;;;;;5043754;28;20285;-75
2021/01/11 05:30:13;;;;;;;19.80;12.07;;;1.50;99.90;;;;;;5044035;28;20206;-76
2021/01/11 05:32:39;;;;;;;19.03;12.10;;;1.50;99.90;;;;;;5040883;28;20289;-76
2021/01/11 05:35:07;;;;;;;22.97;12.60;;;1.50;99.90;;;;;;5050226;28;20217;-77
2021/01/11 05:37:36;;;;;;;23.70;13.53;;;1.50;99.90;;;;;;5042252;28;20207;-76
2021/01/11 05:40:22;;;;;;;20.50;11.80;;;1.40;99.90;;;;;;5051817;28;20220;-77
2021/01/11 05:42:51;;;;;;;20.73;12.00;;;1.50;99.90;;;;;;5042866;28;20297;-77
2021/01/11 05:45:20;;;;;;;23.03;13.23;;;1.40;99.90;;;;;;5044440;28;20245;-77
2021/01/11 05:47:58;;;;;;;23.83;13.90;;;1.40;99.90;;;;;;5051415;28;20293;-76
2021/01/11 05:50:27;;;;;;;23.07;13.23;;;1.40;99.90;;;;;;5042351;28;20202;-77
2021/01/11 05:52:54;;;;;;;25.43;12.57;;;1.30;99.90;;;;;;5044229;28;20651;-76
2021/01/11 05:55:22;;;;;;;23.70;14.00;;;1.30;99.90;;;;;;5042150;28;20281;-75
2021/01/11 05:58:05;;;;;;;22.83;14.10;;;1.30;99.90;;;;;;5040849;28;20297;-75
2021/01/11 06:00:33;;;;;;;25.60;12.93;;;1.30;99.90;;;;;;5042815;28;20240;-75
2021/01/11 06:03:01;;;;;;;25.40;13.70;;;1.10;99.90;;;;;;5045181;28;20206;-76
2021/01/11 06:05:30;;;;;;;25.30;14.13;;;1.30;99.90;;;;;;5049485;28;20321;-77
2021/01/11 06:07:59;;;;;;;24.80;14.30;;;1.30;99.90;;;;;;5044444;28;20211;-76
2021/01/11 06:10:26;;;;;;;24.60;14.00;;;1.20;99.90;;;;;;5045101;28;20651;-76
2021/01/11 06:12:56;;;;;;;26.73;14.50;;;1.20;99.90;;;;;;5045093;28;20250;-75
2021/01/11 06:15:23;;;;;;;26.87;15.53;;;1.30;99.90;;;;;;5039312;28;20202;-76
2021/01/11 06:17:52;;;;;;;30.30;16.23;;;1.30;99.90;;;;;;5044401;28;20206;-75
2021/01/11 06:20:20;;;;;;;32.27;16.57;;;1.30;99.90;;;;;;5041424;28;20206;-77
2021/01/11 06:23:27;;;;;;;30.03;16.20;;;1.20;99.90;;;;;;5043395;28;20214;-76
2021/01/11 06:25:53;;;;;;;26.50;14.80;;;1.20;99.90;;;;;;5047174;28;20298;-75
2021/01/11 06:28:31;;;;;;;31.00;15.63;;;1.20;99.90;;;;;;5055330;28;20208;-75
2021/01/11 06:31:10;;;;;;;29.20;15.47;;;1.10;99.90;;;;;;5046888;28;20255;-77
2021/01/11 06:33:38;;;;;;;25.53;15.07;;;1.10;99.90;;;;;;5051144;28;20213;-76
2021/01/11 06:36:18;;;;;;;24.97;14.73;;;1.10;99.90;;;;;;5040942;28;20353;-76
2021/01/11 06:38:47;;;;;;;28.53;15.87;;;1.10;99.90;;;;;;5048660;28;20229;-76
2021/01/11 06:41:15;;;;;;;27.00;15.50;;;1.10;99.90;;;;;;5047748;28;20543;-75
2021/01/11 06:43:43;;;;;;;25.93;14.53;;;1.20;99.90;;;;;;5047269;28;20214;-75
2021/01/11 06:46:12;;;;;;;24.13;14.37;;;1.20;99.90;;;;;;5048887;28;20629;-75
2021/01/11 06:48:40;;;;;;;25.47;14.83;;;1.10;99.90;;;;;;5045030;28;20250;-75
2021/01/11 06:51:08;;;;;;;25.63;14.57;;;1.10;99.90;;;;;;5047366;28;20344;-76
2021/01/11 06:53:34;;;;;;;27.63;15.37;;;1.00;99.90;;;;;;5050214;28;20202;-76
2021/01/11 06:56:07;;;;;;;28.33;14.60;;;1.00;99.90;;;;;;5050780;28;20212;-76
2021/01/11 06:58:34;;;;;;;33.63;15.57;;;1.00;99.90;;;;;;5050026;28;20210;-77
2021/01/11 07:01:06;;;;;;;29.50;15.27;;;1.10;99.90;;;;;;5046201;28;20293;-76
2021/01/11 07:03:46;;;;;;;26.60;15.87;;;1.10;99.90;;;;;;5047563;28;20253;-77
2021/01/11 07:06:35;;;;;;;27.30;15.67;;;1.10;99.90;;;;;;5049401;28;20198;-76
2021/01/11 07:09:10;;;;;;;28.30;15.67;;;1.10;99.90;;;;;;5051575;28;20242;-76
2021/01/11 07:11:39;;;;;;;30.73;15.63;;;1.10;99.90;;;;;;5051392;28;20238;-75
2021/01/11 07:14:06;;;;;;;30.40;16.40;;;1.10;99.90;;;;;;5052221;28;20199;-76
2021/01/11 07:16:40;;;;;;;27.10;16.07;;;1.10;99.90;;;;;;5042584;28;20307;-76
2021/01/11 07:19:06;;;;;;;29.20;15.77;;;1.10;99.90;;;;;;5044663;28;20204;-75
2021/01/11 07:21:36;;;;;;;29.33;16.23;;;1.20;99.90;;;;;;5045069;28;20209;-75
2021/01/11 07:24:04;;;;;;;27.10;15.27;;;1.20;99.90;;;;;;5049695;28;20749;-75
2021/01/11 07:26:32;;;;;;;27.70;16.53;;;0.80;99.90;;;;;;5042815;28;20205;-75
2021/01/11 07:29:02;;;;;;;28.47;16.90;;;1.30;99.90;;;;;;5041896;28;20206;-74
2021/01/11 07:31:32;;;;;;;31.83;16.63;;;1.40;99.90;;;;;;5031620;28;20268;-76
2021/01/11 07:34:02;;;;;;;30.93;16.70;;;1.40;99.90;;;;;;5041772;28;20211;-75
2021/01/11 07:36:40;;;;;;;28.87;16.37;;;1.50;99.90;;;;;;5055482;28;20210;-75
2021/01/11 07:39:13;;;;;;;34.90;16.97;;;1.50;99.90;;;;;;5048320;28;20297;-77
2021/01/11 07:41:40;;;;;;;28.00;16.10;;;1.50;99.90;;;;;;5049287;28;20300;-75
2021/01/11 07:44:19;;;;;;;30.83;18.20;;;1.60;99.90;;;;;;5044327;28;20449;-75
2021/01/11 07:46:52;;;;;;;31.93;17.97;;;1.70;99.90;;;;;;5053052;28;20255;-76
2021/01/11 07:49:18;;;;;;;33.90;17.03;;;1.80;99.90;;;;;;5041504;28;20216;-75
2021/01/11 07:51:47;;;;;;;40.00;18.57;;;1.90;99.90;;;;;;5048880;28;20221;-75
2021/01/11 07:54:15;;;;;;;28.47;17.00;;;2.10;99.90;;;;;;5042499;28;20202;-77
2021/01/11 07:56:44;;;;;;;35.17;18.03;;;2.20;99.90;;;;;;5043211;28;20198;-75
2021/01/11 07:59:10;;;;;;;28.33;17.63;;;2.30;99.90;;;;;;5055249;28;20552;-76
2021/01/11 08:01:42;;;;;;;31.73;17.30;;;2.40;99.90;;;;;;5046591;28;20298;-76
2021/01/11 08:04:10;;;;;;;32.07;17.77;;;2.50;99.90;;;;;;5044533;28;20321;-76
2021/01/11 08:06:54;;;;;;;31.50;18.23;;;2.60;99.90;;;;;;5043781;28;20659;-76
2021/01/11 08:09:23;;;;;;;31.87;18.30;;;2.70;99.90;;;;;;5040066;28;20203;-76
2021/01/11 08:11:54;;;;;;;30.03;17.67;;;2.70;99.90;;;;;;5038295;28;20655;-75
2021/01/11 08:14:29;;;;;;;37.03;19.27;;;2.80;99.90;;;;;;5035983;28;20221;-73
2021/01/11 08:16:56;;;;;;;31.13;17.90;;;2.90;99.90;;;;;;5043882;28;20202;-73
2021/01/11 08:19:23;;;;;;;34.90;18.17;;;3.00;99.90;;;;;;5041321;28;20289;-74
2021/01/11 08:21:56;;;;;;;31.40;18.13;;;3.10;99.90;;;;;;5041623;28;20221;-73
2021/01/11 08:24:23;;;;;;;32.73;18.00;;;3.30;99.90;;;;;;5033327;28;20234;-73
2021/01/11 08:26:55;;;;;;;34.17;19.00;;;3.40;99.90;;;;;;5030182;28;20293;-73
2021/01/11 08:29:22;;;;;;;31.57;17.43;;;3.50;99.90;;;;;;5033631;28;20215;-75
2021/01/11 08:31:48;;;;;;;32.90;17.33;;;3.60;99.90;;;;;;5033528;28;20207;-71
2021/01/11 08:34:16;;;;;;;36.73;19.27;;;3.70;99.90;;;;;;5041066;28;20272;-70
2021/01/11 08:36:42;;;;;;;35.90;18.37;;;4.00;99.90;;;;;;5033949;28;20338;-74
2021/01/11 08:39:14;;;;;;;31.63;17.70;;;4.10;99.90;;;;;;5040781;28;20234;-72
2021/01/11 08:41:43;;;;;;;37.87;17.60;;;4.20;99.90;;;;;;5038825;28;20198;-72
2021/01/11 08:44:27;;;;;;;33.17;18.63;;;4.30;99.90;;;;;;5034917;28;20763;-70
2021/01/11 08:47:04;;;;;;;35.83;17.70;;;4.30;99.90;;;;;;5036184;28;20207;-72
2021/01/11 08:49:33;;;;;;;30.37;17.63;;;4.40;99.90;;;;;;5039151;28;20258;-72
2021/01/11 08:52:10;;;;;;;29.57;16.93;;;4.60;99.90;;;;;;5046180;28;20285;-72
2021/01/11 08:54:37;;;;;;;30.67;17.63;;;4.80;99.90;;;;;;5041241;28;20206;-75
2021/01/11 08:57:12;;;;;;;30.97;18.47;;;5.20;99.90;;;;;;5033991;28;20217;-74
2021/01/11 08:59:48;;;;;;;32.47;18.57;;;6.00;99.90;;;;;;5033868;28;20213;-74
2021/01/11 09:02:25;;;;;;;30.53;17.43;;;7.70;99.90;;;;;;5044253;28;20608;-75
2021/01/11 09:04:53;;;;;;;30.90;17.60;;;9.80;99.90;;;;;;5031794;28;20234;-76
2021/01/11 09:07:27;;;;;;;30.40;17.73;;;11.60;94.30;;;;;;5032681;28;20267;-76
2021/01/11 09:09:54;;;;;;;31.60;18.20;;;13.30;83.20;;;;;;5047638;28;20297;-76
2021/01/11 09:12:31;;;;;;;28.43;17.53;;;14.50;68.10;;;;;;5034198;28;20226;-75
2021/01/11 09:14:58;;;;;;;29.30;18.90;;;15.90;61.60;;;;;;5034163;28;20214;-76
2021/01/11 09:17:29;;;;;;;29.67;19.03;;;17.20;56.10;;;;;;5033497;28;20245;-77
2021/01/11 09:20:00;;;;;;;28.50;19.33;;;18.00;52.10;;;;;;5033980;28;20242;-76
2021/01/11 09:22:33;;;;;;;31.70;18.03;;;19.00;48.30;;;;;;5035083;28;20216;-78
2021/01/11 09:25:01;;;;;;;24.23;17.10;;;19.90;46.10;;;;;;5034673;28;20222;-76
2021/01/11 09:27:27;;;;;;;26.45;18.08;;;20.70;44.30;;;;;;5034667;28;20220;-77
2021/01/11 09:29:53;;;;;;;26.63;17.80;;;21.30;41.60;;;;;;5036912;28;20241;-76
2021/01/11 09:32:20;;;;;;;23.42;17.48;;;22.00;41.20;;;;;;5045310;28;20209;-76
2021/01/11 09:34:47;;;;;;;26.35;18.10;;;22.60;39.50;;;;;;5041147;28;20213;-77
2021/01/11 09:37:15;;;;;;;26.05;18.13;;;22.90;39.00;;;;;;5037864;28;20672;-78
2021/01/11 09:39:42;;;;;;;27.52;18.90;;;23.10;37.90;;;;;;5037134;28;20300;-74
2021/01/11 09:42:09;;;;;;;23.38;16.40;;;23.40;37.40;;;;;;5042497;28;20287;-75
2021/01/11 09:44:35;;;;;;;21.30;16.10;;;23.80;36.60;;;;;;5038291;28;20612;-76
2021/01/11 09:47:05;;;;;;;25.38;18.27;;;24.00;35.80;;;;;;5036621;28;20210;-76
2021/01/11 09:49:32;;;;;;;23.75;16.05;;;24.10;35.20;;;;;;5036406;28;20581;-75
2021/01/11 09:51:58;;;;;;;22.70;16.20;;;24.60;35.50;;;;;;5031453;28;20214;-75
2021/01/11 09:54:25;;;;;;;24.45;17.17;;;24.90;34.60;;;;;;5038301;28;20298;-75
2021/01/11 09:56:52;;;;;;;24.55;18.52;;;25.00;33.90;;;;;;5036467;28;20207;-75
2021/01/11 09:59:19;;;;;;;22.67;16.98;;;24.70;33.00;;;;;;5038445;28;20233;-74
2021/01/11 10:01:47;;;;;;;23.92;17.33;;;24.60;32.90;;;;;;5038631;28;20226;-75
2021/01/11 10:04:14;;;;;;;25.35;17.45;;;24.60;32.90;;;;;;5040534;28;20364;-76
2021/01/11 10:06:42;;;;;;;25.23;17.55;;;25.00;33.20;;;;;;5042610;28;20210;-75
2021/01/11 10:09:10;;;;;;;25.80;17.60;;;25.60;32.10;;;;;;5028352;28;20301;-75
2021/01/11 10:11:37;;;;;;;23.67;16.83;;;26.00;31.00;;;;;;5035614;28;20213;-74
2021/01/11 10:14:04;;;;;;;22.63;16.88;;;25.90;31.10;;;;;;5036446;28;20267;-75
2021/01/11 10:16:31;;;;;;;23.95;18.00;;;26.20;30.80;;;;;;5042987;28;20238;-76
2021/01/11 10:18:57;;;;;;;22.15;17.20;;;26.80;30.30;;;;;;5037682;28;20228;-75
2021/01/11 10:21:25;;;;;;;23.73;17.75;;;27.00;29.80;;;;;;5036692;28;20290;-75
2021/01/11 10:23:54;;;;;;;19.80;15.05;;;27.20;29.80;;;;;;5036299;28;20230;-76
2021/01/11 10:26:21;;;;;;;20.38;15.23;;;27.60;29.10;;;;;;5036170;28;20747;-75
2021/01/11 10:28:49;;;;;;;18.50;14.52;;;27.90;29.00;;;;;;5036549;28;20636;-75
2021/01/11 10:31:16;;;;;;;21.73;15.60;;;28.10;28.50;;;;;;5033525;28;20646;-75
2021/01/11 10:33:46;;;;;;;21.73;16.23;;;28.40;28.20;;;;;;5038333;28;20210;-77
2021/01/11 10:36:13;;;;;;;20.58;15.38;;;28.70;28.00;;;;;;5035717;28;20317;-76
2021/01/11 10:38:40;;;;;;;17.70;14.40;;;28.90;27.60;;;;;;5033647;28;20203;-76
2021/01/11 10:41:07;;;;;;;19.25;14.25;;;28.90;27.60;;;;;;5036635;28;20211;-74
2021/01/11 10:43:33;;;;;;;17.55;13.93;;;28.80;26.90;;;;;;5034956;28;20241;-74
2021/01/11 10:46:01;;;;;;;19.35;14.98;;;28.50;26.90;;;;;;5035256;28;20227;-74
2021/01/11 10:48:28;;;;;;;19.17;14.77;;;28.10;27.30;;;;;;5035301;28;20229;-74
2021/01/11 10:50:55;;;;;;;20.52;16.10;;;28.10;27.70;;;;;;5037446;28;20723;-74
2021/01/11 10:53:21;;;;;;;18.10;14.23;;;28.20;27.90;;;;;;5033241;28;20684;-74
2021/01/11 10:55:48;;;;;;;19.55;15.38;;;28.60;27.30;;;;;;5030549;28;20289;-74
2021/01/11 10:58:14;;;;;;;20.75;16.02;;;28.60;26.50;;;;;;5030881;28;20239;-75
2021/01/11 11:00:41;;;;;;;20.85;15.60;;;28.60;26.90;;;;;;5032227;28;20282;-74
2021/01/11 11:03:08;;;;;;;19.05;15.43;;;28.40;26.90;;;;;;5032639;28;20206;-73
2021/01/11 11:05:35;;;;;;;19.70;15.88;;;28.70;26.80;;;;;;5041822;28;20332;-74
2021/01/11 11:08:01;;;;;;;20.67;15.38;;;29.10;27.00;;;;;;5034128;28;20238;-72
2021/01/11 11:10:28;;;;;;;20.77;15.68;;;29.40;26.40;;;;;;5030779;28;20242;-73
2021/01/11 11:12:54;;;;;;;20.65;15.18;;;29.20;26.20;;;;;;5035114;28;20277;-75
2021/01/11 11:15:21;;;;;;;18.65;14.55;;;28.40;25.90;;;;;;5039811;28;20583;-74
2021/01/11 11:17:47;;;;;;;19.58;14.30;;;27.30;26.60;;;;;;5033725;28;20218;-73
2021/01/11 11:20:15;;;;;;;19.10;13.88;;;26.70;28.10;;;;;;5029517;28;20294;-73
2021/01/11 11:22:42;;;;;;;16.83;12.90;;;26.60;27.60;;;;;;5036286;28;20310;-74
2021/01/11 11:25:09;;;;;;;16.35;11.82;;;26.50;27.80;;;;;;5039516;28;20621;-74
2021/01/11 11:27:36;;;;;;;16.58;12.48;;;26.80;27.60;;;;;;5039030;28;20351;-72
2021/01/11 11:30:05;;;;;;;17.95;13.43;;;27.00;27.10;;;;;;5041735;28;20213;-74
2021/01/11 11:32:34;;;;;;;20.38;14.63;;;27.30;26.60;;;;;;5040532;28;20203;-76
2021/01/11 11:35:04;;;;;;;20.10;14.18;;;27.60;26.90;;;;;;5046020;28;20227;-73
2021/01/11 11:37:32;;;;;;;17.55;12.43;;;28.00;26.70;;;;;;5043028;28;20210;-72
2021/01/11 11:40:00;;;;;;;18.40;13.60;;;28.30;26.40;;;;;;5043547;28;20198;-75
2021/01/11 11:42:33;;;;;;;16.45;13.18;;;28.60;26.30;;;;;;5037935;28;20245;-76
2021/01/11 11:44:59;;;;;;;18.60;14.63;;;29.00;25.70;;;;;;5043282;28;20769;-75
2021/01/11 11:47:31;;;;;;;18.65;13.98;;;28.80;25.60;;;;;;5048596;28;20210;-75
2021/01/11 11:49:58;;;;;;;17.80;14.50;;;27.20;25.10;;;;;;5045516;28;20198;-75
2021/01/11 11:52:24;;;;;;;21.77;14.57;;;24.80;26.70;;;;;;5041807;28;20293;-73
2021/01/11 11:54:55;;;;;;;21.58;14.90;;;22.60;27.90;;;;;;5041190;28;20194;-76
2021/01/11 11:57:21;;;;;;;21.80;16.23;;;20.20;29.40;;;;;;5048849;28;20198;-76
2021/01/11 11:59:48;;;;;;;30.77;16.03;;;18.20;31.30;;;;;;5045470;28;20297;-74
2021/01/11 12:02:15;;;;;;;22.93;15.60;;;16.30;33.80;;;;;;5040009;28;20647;-72
2021/01/11 12:04:42;;;;;;;25.17;15.40;;;14.70;35.70;;;;;;5047993;28;20241;-75
2021/01/11 12:07:08;;;;;;;24.57;14.90;;;13.30;37.50;;;;;;5047807;28;20674;-75
2021/01/11 12:09:34;;;;;;;25.43;15.07;;;12.30;39.60;;;;;;5036731;28;20226;-75
2021/01/11 12:12:02;;;;;;;29.17;16.60;;;11.30;41.50;;;;;;5046727;28;20305;-74
2021/01/11 12:14:28;;;;;;;27.27;16.03;;;10.50;43.00;;;;;;5040460;28;20293;-74
2021/01/11 12:16:54;;;;;;;30.13;16.77;;;9.70;45.50;;;;;;5034900;28;20828;-75
2021/01/11 12:19:22;;;;;;;26.90;16.53;;;9.10;46.80;;;;;;5035100;28;20256;-74
2021/01/11 12:21:51;;;;;;;32.10;17.70;;;8.60;48.10;;;;;;5034477;28;20297;-75
2021/01/11 12:24:17;;;;;;;27.97;16.50;;;8.20;49.20;;;;;;5034109;28;20266;-75
2021/01/11 12:30:08;;;;;;;28.23;17.13;;;7.50;51.40;;;;;;5028754;28;20182;-76
2021/01/11 12:32:39;;;;;;;29.47;16.37;;;7.00;52.50;;;;;;5034108;28;20664;-75
2021/01/11 12:35:06;;;;;;;27.93;15.77;;;6.70;53.50;;;;;;5034724;28;20239;-74
2021/01/11 12:37:33;;;;;;;30.00;15.57;;;6.40;54.20;;;;;;5036024;28;20206;-75
2021/01/11 12:39:59;;;;;;;25.73;15.30;;;6.20;55.10;;;;;;5038668;28;20267;-76
2021/01/11 12:42:26;;;;;;;27.10;15.37;;;5.90;56.00;;;;;;5043673;28;20310;-75
2021/01/11 12:44:52;;;;;;;27.80;16.30;;;5.70;56.80;;;;;;5042762;28;20253;-76
2021/01/11 12:47:20;;;;;;;26.17;14.27;;;5.50;57.30;;;;;;5039272;28;20295;-74
2021/01/11 12:49:48;;;;;;;31.13;16.07;;;5.40;58.00;;;;;;5040683;28;20390;-75